Date,TemperatureHighF,TemperatureAvgF,TemperatureLowF,DewpointHighF,DewpointAvgF,DewpointLowF,HumidityHigh,HumidityAvg,HumidityLow,PressureMaxIn,PressureMinIn,WindSpeedMaxMPH,WindSpeedAvgMPH,GustSpeedMaxMPH,PrecipitationSumIn
2013-1-1,35,19,9,19,9,2,83,65,40,30.02,29.90,0,0,0,0.00
2013-1-2,34,23,14,14,9,2,71,55,36,30.14,29.99,0,0,0,0.00
2013-1-3,41,22,9,13,7,1,74,54,30,30.15,30.04,0,0,0,0.00
2013-1-4,46,27,14,20,12,5,74,56,33,30.06,29.92,0,0,0,0.00
2013-1-5,42,26,16,18,12,7,74,58,36,30.14,29.94,0,0,0,0.00
2013-1-6,44,25,11,18,10,3,76,56,24,30.12,29.84,0,0,0,0.00
2013-1-7,53,36,23,18,14,8,76,43,22,29.92,29.73,0,0,0,0.00
2013-1-8,52,40,24,23,19,16,77,45,31,30.09,29.72,0,0,0,0.00
2013-1-9,54,34,22,24,19,14,77,56,27,30.16,29.91,0,0,0,0.00
2013-1-10,41,29,19,25,19,12,80,67,48,29.91,29.42,0,0,0,0.00
2013-1-11,40,28,9,25,15,2,84,61,25,29.71,29.28,0,0,0,0.00
2013-1-12,22,12,5,11,4,-1,85,74,60,29.88,29.71,0,0,0,0.00
2013-1-13,18,9,2,7,2,-5,80,72,60,29.97,29.87,0,0,0,0.00
2013-1-14,18,8,0,6,-1,-8,80,66,49,30.01,29.92,0,0,0,0.00
2013-1-15,33,18,-3,17,6,-10,79,62,41,30.01,29.91,0,0,0,0.00
2013-1-16,54,36,21,25,19,11,70,52,31,30.22,29.99,0,0,0,0.00
2013-1-17,52,32,19,22,17,12,76,57,27,30.32,30.08,0,0,0,0.00
2013-1-18,58,40,21,18,11,5,75,36,12,30.10,29.96,0,0,0,0.00
2013-1-19,60,47,30,12,6,0,42,20,12,30.14,29.97,0,0,0,0.00
2013-1-20,48,33,19,17,13,10,70,46,23,30.15,30.00,0,0,0,0.00
2013-1-21,55,41,15,23,11,-2,79,36,14,30.09,29.95,0,0,0,0.13
2013-1-22,63,51,30,17,5,-7,42,16,5,30.04,29.92,0,0,0,0.00
2013-1-23,60,47,30,16,6,-1,43,21,8,30.09,30.03,0,0,0,0.00
2013-1-24,63,36,26,20,16,12,65,49,17,30.00,29.90,0,0,0,0.00
2013-1-25,51,45,32,28,27,24,72,51,42,30.04,29.98,0,0,0,0.00
2013-1-26,53,44,31,36,31,25,83,63,42,29.96,29.72,0,0,0,0.00
2013-1-27,58,41,31,39,30,21,88,68,40,29.74,29.67,0,0,0,0.00
2013-1-28,50,34,25,31,24,17,87,70,40,29.68,29.54,0,0,0,0.00
2013-1-29,36,26,16,23,16,7,85,67,41,29.84,29.62,0,0,0,0.00
2013-1-30,41,27,10,17,12,2,83,54,35,29.83,29.69,0,0,0,0.00
2013-1-31,48,36,25,25,19,14,81,53,28,30.03,29.78,0,0,0,0.00
2013-2-1,50,31,20,28,19,14,88,64,28,30.05,29.93,0,0,0,0.00
2013-2-2,38,25,20,27,18,14,82,75,62,30.16,30.04,0,0,0,0.00
2013-2-5,60,50,39,26,22,20,51,34,23,29.88,29.78,0,0,0,0.00
2013-2-6,54,42,29,32,25,20,82,55,28,29.96,29.75,0,0,0,0.00
2013-2-7,50,35,23,32,21,14,85,59,27,30.08,29.91,0,0,0,0.00
2013-2-8,52,32,18,21,13,6,73,51,16,29.91,29.65,0,0,0,0.00
2013-2-9,39,30,22,27,20,13,83,68,46,29.65,29.52,0,0,0,0.00
2013-2-10,41,28,23,23,16,10,80,63,32,29.91,29.53,0,0,0,0.00
2013-2-11,30,23,17,18,14,10,82,70,54,29.94,29.87,0,0,0,0.00
2013-2-12,45,28,12,17,6,-3,81,47,15,29.96,29.88,0,0,0,0.00
2013-2-13,49,33,19,17,13,8,65,44,24,29.91,29.80,0,0,0,0.00
2013-2-14,35,28,20,24,19,12,79,68,39,30.13,29.89,0,0,0,0.00
2013-2-15,44,31,17,24,17,11,79,58,29,30.17,30.05,0,0,0,0.00
2013-2-16,56,41,18,20,15,10,80,37,21,30.05,29.88,0,0,0,0.00
2013-2-17,61,46,34,18,8,2,53,24,8,29.88,29.55,0,0,0,0.00
2013-2-18,42,31,22,20,11,1,71,47,20,29.96,29.70,0,0,0,0.00
2013-2-19,42,26,18,15,10,6,65,53,29,29.96,29.72,0,0,0,0.00
2013-2-20,39,26,20,27,18,12,86,72,43,29.72,29.60,0,0,0,0.00
2013-2-21,36,26,16,23,18,12,85,73,54,29.79,29.65,0,0,0,0.00
2013-2-22,41,23,14,23,15,8,83,72,48,29.88,29.72,0,0,0,0.00
2013-2-23,43,28,13,26,17,7,87,66,45,29.73,29.58,0,0,0,0.00
2013-2-24,30,28,24,26,24,19,91,86,78,29.97,29.65,0,0,0,0.00
2013-2-25,39,28,12,23,17,7,81,64,48,29.96,29.71,0,0,0,0.00
2013-2-26,42,28,15,30,19,8,83,70,50,29.98,29.68,0,0,0,0.00
2013-2-27,42,26,14,17,12,5,72,56,33,30.12,29.97,0,0,0,0.00
2013-2-28,46,31,15,21,14,7,78,50,27,30.12,30.02,0,0,0,0.00
2013-3-1,51,36,26,27,22,13,78,57,36,30.20,30.05,0,0,0,0.00
2013-3-2,60,46,28,32,26,22,82,50,27,30.17,29.97,0,0,0,0.00
2013-3-3,61,50,37,27,25,22,63,40,24,29.90,29.66,0,0,0,0.00
2013-3-4,49,38,27,28,25,20,78,63,42,29.96,29.61,0,0,0,0.00
2013-3-5,38,26,10,20,15,5,78,65,47,30.15,30.07,0,0,0,0.00
2013-3-6,53,51,48,32,31,30,53,47,43,29.88,29.85,0,0,0,0.00
2013-3-7,64,46,28,33,28,22,81,52,23,29.91,29.81,0,0,0,0.00
2013-3-8,46,38,31,32,28,24,81,69,57,29.87,29.75,0,0,0,0.00
2013-3-9,35,32,25,32,27,18,91,84,72,29.96,29.62,0,0,0,0.00
2013-3-10,49,39,17,26,22,10,78,53,33,30.03,29.91,0,0,0,0.00
2013-3-11,56,43,33,30,22,16,84,44,27,30.03,29.82,0,0,0,0.00
2013-3-12,44,34,27,28,26,23,89,71,53,30.17,30.03,0,0,0,0.00
2013-3-13,48,31,25,35,26,22,90,82,51,30.18,30.01,0,0,0,0.00
2013-3-14,42,40,39,31,30,29,73,68,64,30.12,30.09,0,0,0,0.00
2013-3-15,76,70,59,28,24,21,29,18,13,29.93,29.83,0,0,0,0.00
2013-3-16,43,41,38,33,32,30,74,70,66,29.94,29.74,0,0,0,0.00
2013-3-17,59,46,31,32,24,17,82,49,21,29.74,29.55,0,0,0,0.00
2013-3-18,50,40,33,17,12,6,44,32,23,29.87,29.77,0,0,0,0.00
2013-3-19,57,44,30,16,5,-8,54,21,7,30.19,29.84,0,0,0,0.00
2013-3-20,48,36,23,24,18,14,69,51,37,30.17,29.75,0,0,0,0.00
2013-3-21,59,46,36,37,23,11,65,40,21,29.75,29.52,0,0,0,0.00
2013-3-22,48,34,26,29,20,12,92,61,37,29.83,29.64,0,0,0,0.00
2013-3-23,28,25,23,24,20,17,91,81,63,29.99,29.80,0,0,0,0.00
2013-3-24,40,29,20,20,15,11,82,56,37,30.06,29.94,0,0,0,0.00
2013-3-25,40,26,12,19,14,6,79,62,41,30.14,30.03,0,0,0,0.00
2013-3-26,47,28,16,29,18,8,78,65,44,30.04,29.84,0,0,0,0.00
2013-3-27,53,37,29,39,29,23,83,74,52,30.00,29.91,0,0,0,0.00
2013-3-28,65,46,31,38,32,27,92,62,29,30.03,29.96,0,0,0,0.00
2013-3-29,68,49,37,38,32,28,79,56,25,30.04,29.97,0,0,0,0.00
2013-3-30,68,50,35,39,32,23,79,55,19,30.11,29.95,0,0,0,0.00
2013-3-31,70,50,33,36,30,25,82,54,20,30.09,29.88,0,0,0,0.00
2013-4-1,53,43,32,34,32,24,80,64,48,30.05,29.93,0,0,0,0.04
2013-4-2,41,38,35,35,33,31,92,83,73,30.01,29.95,0,0,0,0.37
2013-4-3,62,46,37,42,36,32,92,71,35,30.03,29.96,0,0,0,0.02
2013-4-4,71,53,37,41,34,29,76,51,22,30.06,29.91,0,0,0,0.00
2013-4-5,75,60,47,37,31,25,63,37,17,29.91,29.68,0,0,0,0.00
2013-5-8,69,49,46,51,44,42,92,84,53,30.00,29.91,0,0,0,0.72
2013-5-9,64,52,45,50,44,39,91,74,51,30.10,29.98,0,0,0,0.32
2013-5-10,69,60,40,48,41,35,84,53,34,30.16,30.06,0,0,0,0.00
2013-5-11,71,60,44,47,43,36,74,54,38,30.28,30.10,0,0,0,0.00
2013-5-12,81,66,50,46,42,37,74,44,23,30.13,30.02,0,0,0,0.00
2013-5-13,89,67,53,49,44,36,65,45,24,30.07,29.96,0,0,0,0.00
2013-5-14,86,70,57,51,44,37,66,41,21,29.97,29.88,0,0,0,0.00
2013-5-15,82,64,54,51,45,39,73,53,27,29.93,29.85,0,0,0,0.00
2013-5-16,82,63,52,56,47,39,86,61,24,29.90,29.77,0,0,0,0.00
2013-5-17,87,62,51,50,42,23,75,53,17,29.85,29.72,0,0,0,0.00
2013-5-18,80,69,54,49,37,23,56,31,19,29.87,29.76,0,0,0,0.00
2013-5-19,72,60,49,40,36,32,61,43,25,29.80,29.73,0,0,0,0.00
2013-5-20,67,55,48,50,45,35,87,68,51,29.94,29.78,0,0,0,0.20
2013-5-21,72,65,42,44,38,35,81,40,29,29.96,29.83,0,0,0,0.00
2013-5-22,76,63,44,52,45,34,81,56,29,30.00,29.85,0,0,0,0.06
2013-5-23,74,59,50,55,48,45,86,70,47,30.03,29.90,0,0,0,0.00
2013-5-24,83,62,45,55,47,40,89,63,25,29.94,29.86,0,0,0,0.00
2013-5-25,88,77,52,54,42,33,73,34,15,29.95,29.83,0,0,0,0.00
2013-5-26,86,70,54,53,40,34,60,36,18,29.89,29.83,0,0,0,0.00
2013-5-27,84,69,53,47,37,30,53,34,15,29.82,29.74,0,0,0,0.00
2013-5-28,80,71,49,52,46,36,72,42,30,29.80,29.57,0,0,0,0.00
2013-5-29,66,57,49,53,44,36,88,65,34,29.68,29.61,0,0,0,0.56
2013-5-30,71,62,46,44,34,28,70,37,23,29.81,29.64,0,0,0,0.00
2013-5-31,73,60,46,36,27,20,56,31,16,29.94,29.78,0,0,0,0.00
2013-6-1,75,60,46,47,41,31,77,52,33,30.12,29.93,0,0,0,0.00
2013-6-2,89,66,44,51,42,32,77,45,19,30.11,29.78,0,0,0,0.00
2013-6-3,90,73,51,54,38,30,63,34,13,29.81,29.74,0,0,0,0.00
2013-6-4,71,56,52,52,48,36,88,75,43,30.13,29.89,0,0,0,0.27
2013-6-5,64,53,48,53,47,43,88,81,65,30.12,30.04,0,0,0,0.02
2013-6-6,77,59,42,54,45,38,89,64,29,30.05,29.98,0,0,0,0.00
2013-6-7,83,61,49,56,47,42,80,62,38,30.04,29.76,0,0,0,0.00
2013-6-8,80,67,56,57,48,41,64,51,34,29.98,29.72,0,0,0,0.00
2013-6-9,89,70,48,55,46,40,78,47,21,29.98,29.88,0,0,0,0.00
2013-6-10,95,72,61,63,48,40,62,45,23,29.92,29.83,0,0,0,0.00
2013-7-25,76,68,62,62,58,54,87,69,56,30.19,30.11,4,0,4,1.23
2013-7-26,83,69,56,61,55,49,83,63,41,30.20,30.07,6,0,6,0.05
2013-7-27,77,65,54,60,55,48,90,71,53,30.10,29.99,5,0,5,0.90
2013-7-28,72,63,59,63,59,56,92,85,69,30.04,29.89,2,0,2,0.00
2013-7-29,70,63,58,62,58,54,95,84,65,30.11,29.90,0,0,0,0.00
2013-7-30,61,60,58,56,54,52,84,82,78,30.11,30.09,0,0,0,0.00
2013-10-11,66,54,44,39,36,32,83,51,36,29.96,29.76,0,0,0,0.00
2013-10-12,55,46,41,43,40,36,87,77,60,30.08,29.96,0,0,0,0.00
2013-10-13,59,47,36,45,40,32,89,76,57,30.04,29.80,0,0,0,0.00
2013-10-14,53,46,40,43,38,32,89,74,54,30.04,29.75,0,0,0,0.00
2013-10-15,45,40,37,34,30,27,79,68,56,30.15,30.04,0,0,0,0.00
2013-10-16,54,39,28,35,30,24,86,70,44,30.06,29.91,0,0,0,0.00
2013-10-17,51,41,33,36,32,28,85,72,53,30.02,29.91,0,0,0,0.00
2013-10-18,48,37,30,35,31,26,93,78,55,30.09,29.95,0,0,0,0.33
2013-10-19,65,46,30,32,28,25,88,53,25,29.98,29.82,0,0,0,0.02
2013-10-20,51,43,34,38,32,25,88,69,40,30.01,29.81,0,0,0,0.17
2013-10-21,62,44,30,38,31,27,93,65,31,30.07,29.99,0,0,0,0.00
2013-10-22,66,49,36,39,34,27,82,57,33,30.13,30.00,0,0,0,0.00
2013-10-23,65,48,36,39,34,30,85,62,34,30.11,29.99,0,0,0,0.00
2013-10-24,55,42,32,41,35,28,89,77,57,30.17,30.09,0,0,0,0.00
2013-10-25,67,48,33,42,36,28,89,67,34,30.12,30.01,0,0,0,0.00
2013-10-26,64,48,36,41,35,30,80,64,38,30.24,30.02,0,0,0,0.00
2013-10-27,70,48,36,38,32,26,86,59,22,30.02,29.79,0,0,0,0.00
2013-10-28,46,38,33,34,32,30,91,81,60,29.95,29.81,0,0,0,0.00
2013-10-29,38,36,33,34,32,31,92,88,81,29.90,29.77,0,0,0,0.00
2013-10-30,42,35,31,38,32,27,93,89,82,29.82,29.74,0,0,0,0.07
2013-10-31,55,43,28,29,24,21,87,51,31,29.81,29.71,0,0,0,0.02
2013-11-1,52,41,32,36,28,23,80,61,34,30.07,29.80,0,0,0,0.00
2013-11-2,60,41,27,37,28,22,82,61,38,30.07,29.68,0,0,0,0.00
2013-11-3,67,50,34,31,27,21,82,47,19,29.75,29.53,0,0,0,0.00
2013-11-4,44,37,30,31,23,17,84,58,36,29.92,29.74,0,0,0,0.00
2013-11-5,46,35,27,24,17,8,76,51,22,29.99,29.80,0,0,0,0.00
2013-11-6,52,38,24,24,18,9,75,46,27,30.16,29.96,0,0,0,0.00
2013-11-7,55,40,28,31,26,20,80,59,37,30.22,29.87,0,0,0,0.00
2013-11-8,66,54,32,29,23,16,82,34,20,29.91,29.71,0,0,0,0.00
2013-11-9,62,48,36,36,30,23,74,53,29,30.11,29.91,0,0,0,0.00
2013-11-10,66,47,32,36,29,22,81,55,22,30.12,30.05,0,0,0,0.00
2013-11-15,46,43,41,27,26,24,58,50,43,29.47,29.45,0,0,0,0.00
2013-11-16,58,46,37,34,23,17,71,41,25,29.51,29.32,0,0,0,0.00
2013-11-17,57,43,30,27,20,16,70,42,20,29.95,29.50,0,0,0,0.00
2013-11-18,64,41,24,31,22,16,76,51,17,30.04,29.90,0,0,0,0.00
2013-11-19,59,47,31,31,26,18,74,45,29,29.90,29.67,0,0,0,0.00
2013-11-20,60,48,30,33,29,24,81,48,30,29.93,29.71,0,0,0,0.00
2013-11-21,30,21,18,25,16,12,84,80,73,30.15,29.93,0,0,0,0.00